createdAt,value
2023-05-05T00:00:04.892Z,69.25
2023-05-05T00:01:04.894Z,68.96
2023-05-05T00:02:04.902Z,67.68
2023-05-05T00:03:04.920Z,66.68
2023-05-05T00:04:04.951Z,68.35
2023-05-05T00:05:04.900Z,70.44
2023-05-05T00:06:05.017Z,64.26
2023-05-05T00:07:04.987Z,65.64
2023-05-05T00:08:04.997Z,69.71
2023-05-05T00:09:05.025Z,67.04
2023-05-05T00:10:05.081Z,68.94
2023-05-05T00:11:05.063Z,67.39
2023-05-05T00:12:05.122Z,68.14
2023-05-05T00:13:05.194Z,66.17
2023-05-05T00:14:05.117Z,66.95
2023-05-05T00:15:05.127Z,66.11
2023-05-05T00:16:05.152Z,69.82
2023-05-05T00:17:05.262Z,68.67
2023-05-05T00:18:05.279Z,66.95
2023-05-05T00:19:05.201Z,67.00
2023-05-05T00:20:05.325Z,66.09
2023-05-05T00:21:05.255Z,70.75
2023-05-05T00:22:05.263Z,69.42
2023-05-05T00:23:05.382Z,63.27
2023-05-05T00:24:05.454Z,68.41
2023-05-05T00:25:05.581Z,69.53
2023-05-05T00:26:05.798Z,67.31
2023-05-05T00:27:05.664Z,71.13
2023-05-05T00:28:05.671Z,67.30
2023-05-05T00:29:05.704Z,69.25
2023-05-05T00:30:05.831Z,66.17
2023-05-05T00:31:05.773Z,67.19
2023-05-05T00:32:05.758Z,67.12
2023-05-05T00:33:05.794Z,66.57
2023-05-05T00:34:05.789Z,63.73
2023-05-05T00:35:05.822Z,66.64
2023-05-05T00:36:05.799Z,65.34
2023-05-05T00:37:05.801Z,66.82
2023-05-05T00:38:05.876Z,66.09
2023-05-05T00:39:05.990Z,66.78
2023-05-05T00:40:06.232Z,69.19
2023-05-05T00:41:06.018Z,65.72
2023-05-05T00:42:06.040Z,67.55
2023-05-05T00:43:06.069Z,71.30
2023-05-05T00:44:06.038Z,66.67
2023-05-05T00:45:06.052Z,65.52
2023-05-05T00:46:06.109Z,66.25
2023-05-05T00:47:06.191Z,68.10
2023-05-05T00:48:06.288Z,65.68
2023-05-05T00:49:06.276Z,63.73
2023-05-05T00:50:06.643Z,63.60
2023-05-05T00:51:06.272Z,62.95
2023-05-05T00:52:06.335Z,65.86
2023-05-05T00:53:06.297Z,64.97
2023-05-05T00:54:06.283Z,66.61
2023-05-05T00:55:06.316Z,64.25
2023-05-05T00:56:06.411Z,64.62
2023-05-05T00:57:06.391Z,66.34
2023-05-05T00:58:06.421Z,64.63
2023-05-05T00:59:06.431Z,60.57
2023-05-05T01:00:06.688Z,66.47
2023-05-05T01:01:06.541Z,61.78
2023-05-05T01:02:06.563Z,66.37
2023-05-05T01:03:06.659Z,64.29
2023-05-05T01:04:06.763Z,65.39
2023-05-05T01:05:06.594Z,64.59
2023-05-05T01:06:06.606Z,63.48
2023-05-05T01:07:06.732Z,65.71
2023-05-05T01:08:06.723Z,59.90
2023-05-05T01:09:06.779Z,59.41
2023-05-05T01:10:18.981Z,65.70
2023-05-05T01:11:07.797Z,65.88
2023-05-05T01:12:06.788Z,64.79
2023-05-05T01:13:06.809Z,63.12
2023-05-05T01:14:06.756Z,62.74
2023-05-05T01:15:06.759Z,63.07
2023-05-05T01:16:06.790Z,65.38
2023-05-05T01:17:06.707Z,65.82
2023-05-05T01:18:06.905Z,62.33
2023-05-05T01:19:06.680Z,61.89
2023-05-05T01:20:06.788Z,63.58
2023-05-05T01:21:06.672Z,63.42
2023-05-05T01:22:06.667Z,60.11
2023-05-05T01:23:06.652Z,60.78
2023-05-05T01:24:06.640Z,65.61
2023-05-05T01:25:06.672Z,65.64
2023-05-05T01:26:06.627Z,66.69
2023-05-05T01:27:06.646Z,63.63
2023-05-05T01:28:06.608Z,60.41
2023-05-05T01:29:06.606Z,60.96
2023-05-05T01:30:06.743Z,59.33
2023-05-05T01:31:06.595Z,61.60
2023-05-05T01:32:06.602Z,59.07
2023-05-05T01:33:06.604Z,63.90
2023-05-05T01:34:06.617Z,62.76
2023-05-05T01:35:06.626Z,59.95
2023-05-05T01:36:06.637Z,59.56
2023-05-05T01:37:06.634Z,60.63
2023-05-05T01:38:06.838Z,61.51
2023-05-05T01:39:06.696Z,57.76
2023-05-05T01:40:06.979Z,57.86
2023-05-05T01:41:06.747Z,60.43
2023-05-05T01:42:06.761Z,61.37
2023-05-05T01:43:06.797Z,56.80
2023-05-05T01:44:06.797Z,60.06
2023-05-05T01:45:06.829Z,60.26
2023-05-05T01:46:06.836Z,62.61
2023-05-05T01:47:06.815Z,60.48
2023-05-05T01:48:06.835Z,61.14
2023-05-05T01:49:06.885Z,58.46
2023-05-05T01:50:07.017Z,60.67
2023-05-05T01:51:06.931Z,59.26
2023-05-05T01:52:06.949Z,59.69
2023-05-05T01:53:06.967Z,60.94
2023-05-05T01:54:06.969Z,59.71
2023-05-05T01:55:06.989Z,57.08
2023-05-05T01:56:07.007Z,57.43
2023-05-05T01:57:06.974Z,59.99
2023-05-05T01:58:07.015Z,62.19
2023-05-05T01:59:07.051Z,59.04
2023-05-05T02:00:07.286Z,57.66
2023-05-05T02:01:07.071Z,58.43
2023-05-05T02:02:07.094Z,56.21
2023-05-05T02:03:07.181Z,57.45
2023-05-05T02:04:07.122Z,58.08
2023-05-05T02:05:07.136Z,57.52
2023-05-05T02:06:07.218Z,57.09
2023-05-05T02:07:07.208Z,58.83
2023-05-05T02:08:07.236Z,55.97
2023-05-05T02:09:07.245Z,57.78
2023-05-05T02:10:07.468Z,57.07
2023-05-05T02:11:07.282Z,60.38
2023-05-05T02:12:07.394Z,58.39
2023-05-05T02:13:07.401Z,60.70
2023-05-05T02:14:07.345Z,57.31
2023-05-05T02:15:07.363Z,57.83
2023-05-05T02:16:07.406Z,55.32
2023-05-05T02:17:07.402Z,56.56
2023-05-05T02:18:07.422Z,53.89
2023-05-05T02:19:07.460Z,58.83
2023-05-05T02:20:07.703Z,56.89
2023-05-05T02:21:07.483Z,60.87
2023-05-05T02:22:07.505Z,54.96
2023-05-05T02:23:07.540Z,55.79
2023-05-05T02:24:07.543Z,55.55
2023-05-05T02:25:07.604Z,54.39
2023-05-05T02:26:07.622Z,54.78
2023-05-05T02:27:07.634Z,54.01
2023-05-05T02:28:07.690Z,57.88
2023-05-05T02:29:07.708Z,56.27
2023-05-05T02:30:07.982Z,57.04
2023-05-05T02:31:07.714Z,57.01
2023-05-05T02:32:07.754Z,55.94
2023-05-05T02:33:07.758Z,55.24
2023-05-05T02:34:07.763Z,55.20
2023-05-05T02:35:07.794Z,54.41
2023-05-05T02:36:07.826Z,54.56
2023-05-05T02:37:07.876Z,54.86
2023-05-05T02:38:07.904Z,55.49
2023-05-05T02:39:07.910Z,54.13
2023-05-05T02:40:08.120Z,53.00
2023-05-05T02:41:07.967Z,55.36
2023-05-05T02:42:07.978Z,54.25
2023-05-05T02:43:08.054Z,55.69
2023-05-05T02:44:08.020Z,54.61
2023-05-05T02:45:08.029Z,50.30
2023-05-05T02:46:08.121Z,56.44
2023-05-05T02:47:08.094Z,56.86
2023-05-05T02:48:08.295Z,50.53
2023-05-05T02:49:08.163Z,52.42
2023-05-05T02:50:08.237Z,50.92
2023-05-05T02:51:08.197Z,55.23
2023-05-05T02:52:08.206Z,55.08
2023-05-05T02:53:08.258Z,57.49
2023-05-05T02:54:08.281Z,52.10
2023-05-05T02:55:08.287Z,52.85
2023-05-05T02:56:08.340Z,56.93
2023-05-05T02:57:08.366Z,52.35
2023-05-05T02:58:08.428Z,52.67
2023-05-05T02:59:08.399Z,53.08
2023-05-05T03:00:08.603Z,50.97
2023-05-05T03:01:08.506Z,51.86
2023-05-05T03:02:08.477Z,52.09
2023-05-05T03:03:08.586Z,53.29
2023-05-05T03:04:08.548Z,49.34
2023-05-05T03:05:08.548Z,54.21
2023-05-05T03:06:08.581Z,56.08
2023-05-05T03:07:08.644Z,57.65
2023-05-05T03:08:08.658Z,51.93
2023-05-05T03:09:08.669Z,53.74
2023-05-05T03:10:08.890Z,51.16
2023-05-05T03:11:08.735Z,55.50
2023-05-05T03:12:08.780Z,52.53
2023-05-05T03:13:08.954Z,52.25
2023-05-05T03:14:08.868Z,52.26
2023-05-05T03:15:08.847Z,52.68
2023-05-05T03:16:08.947Z,51.59
2023-05-05T03:17:08.922Z,51.10
2023-05-05T03:18:08.942Z,49.72
2023-05-05T03:19:08.961Z,50.16
2023-05-05T03:20:09.079Z,51.25
2023-05-05T03:21:09.064Z,54.05
2023-05-05T03:22:09.064Z,53.79
2023-05-05T03:23:09.071Z,50.19
2023-05-05T03:24:09.103Z,49.57
2023-05-05T03:25:09.126Z,51.24
2023-05-05T03:26:09.150Z,50.79
2023-05-05T03:27:09.178Z,51.10
2023-05-05T03:28:09.185Z,51.78
2023-05-05T03:29:09.197Z,50.86
2023-05-05T03:30:09.541Z,48.86
2023-05-05T03:31:09.273Z,47.99
2023-05-05T03:32:09.366Z,53.17
2023-05-05T03:33:09.387Z,49.91
2023-05-05T03:34:09.356Z,50.70
2023-05-05T03:35:09.353Z,49.80
2023-05-05T03:36:09.379Z,48.73
2023-05-05T03:37:09.396Z,51.62
2023-05-05T03:38:09.418Z,50.15
2023-05-05T03:39:09.450Z,53.25
2023-05-05T03:40:09.595Z,49.66
2023-05-05T03:41:09.522Z,51.03
2023-05-05T03:42:09.549Z,50.23
2023-05-05T03:43:09.566Z,52.34
2023-05-05T03:44:09.584Z,54.18
2023-05-05T03:45:09.601Z,50.42
2023-05-05T03:46:09.678Z,49.89
2023-05-05T03:47:09.702Z,49.13
2023-05-05T03:48:09.791Z,51.59
2023-05-05T03:49:09.744Z,50.59
2023-05-05T03:50:09.855Z,49.81
2023-05-05T03:51:09.800Z,50.59
2023-05-05T03:52:09.838Z,49.19
2023-05-05T03:53:09.868Z,48.37
2023-05-05T03:54:09.917Z,50.35
2023-05-05T03:55:09.939Z,50.93
2023-05-05T03:56:09.958Z,49.34
2023-05-05T03:57:09.989Z,47.45
2023-05-05T03:58:10.035Z,50.17
2023-05-05T03:59:10.075Z,47.71
2023-05-05T04:00:10.093Z,49.54
2023-05-05T04:01:10.109Z,51.63
2023-05-05T04:02:10.153Z,50.33
2023-05-05T04:03:10.408Z,47.37
2023-05-05T04:04:10.211Z,47.28
2023-05-05T04:05:10.227Z,48.55
2023-05-05T04:06:10.253Z,49.37
2023-05-05T04:07:10.268Z,52.22
2023-05-05T04:08:10.329Z,50.40
2023-05-05T04:09:10.358Z,46.05
2023-05-05T04:10:10.621Z,49.37
2023-05-05T04:11:10.394Z,45.53
2023-05-05T04:12:10.464Z,44.25
2023-05-05T04:13:10.540Z,50.40
2023-05-05T04:14:10.501Z,47.69
2023-05-05T04:15:10.522Z,47.64
2023-05-05T04:16:10.550Z,46.69
2023-05-05T04:17:10.560Z,48.85
2023-05-05T04:18:10.654Z,50.71
2023-05-05T04:19:10.968Z,50.70
2023-05-05T04:20:10.848Z,46.29
2023-05-05T04:21:10.670Z,47.60
2023-05-05T04:22:10.703Z,49.21
2023-05-05T04:23:10.731Z,47.73
2023-05-05T04:24:10.745Z,50.20
2023-05-05T04:25:10.776Z,45.27
2023-05-05T04:26:10.840Z,48.31
2023-05-05T04:27:10.871Z,44.68
2023-05-05T04:28:10.862Z,45.62
2023-05-05T04:29:10.895Z,46.79
2023-05-05T04:30:10.931Z,46.42
2023-05-05T04:31:11.022Z,45.65
2023-05-05T04:32:10.998Z,45.68
2023-05-05T04:33:11.027Z,46.62
2023-05-05T04:34:11.058Z,45.85
2023-05-05T04:35:11.058Z,46.85
2023-05-05T04:36:11.153Z,45.86
2023-05-05T04:37:11.138Z,48.50
2023-05-05T04:38:11.193Z,47.27
2023-05-05T04:39:11.230Z,49.00
2023-05-05T04:40:11.248Z,46.21
2023-05-05T04:41:11.267Z,51.24
2023-05-05T04:42:11.274Z,49.37
2023-05-05T04:43:11.315Z,46.30
2023-05-05T04:44:11.333Z,47.62
2023-05-05T04:45:11.386Z,46.26
2023-05-05T04:46:11.425Z,45.06
2023-05-05T04:47:13.212Z,47.09
2023-05-05T04:48:11.424Z,46.69
2023-05-05T04:49:11.405Z,48.36
2023-05-05T04:50:11.488Z,47.52
2023-05-05T04:51:11.394Z,44.67
2023-05-05T04:52:11.403Z,43.62
2023-05-05T04:53:11.399Z,46.38
2023-05-05T04:54:11.370Z,44.16
2023-05-05T04:55:11.367Z,42.46
2023-05-05T04:56:11.399Z,45.02
2023-05-05T04:57:11.361Z,48.23
2023-05-05T04:58:11.391Z,42.79
2023-05-05T04:59:11.332Z,44.39
2023-05-05T05:00:11.540Z,48.74
2023-05-05T05:01:11.328Z,44.68
2023-05-05T05:02:11.368Z,44.22
2023-05-05T05:03:11.360Z,43.33
2023-05-05T05:04:11.326Z,50.51
2023-05-05T05:05:11.306Z,45.34
2023-05-05T05:06:11.295Z,43.95
2023-05-05T05:07:11.271Z,44.18
2023-05-05T05:08:11.305Z,43.56
2023-05-05T05:09:11.245Z,45.62
2023-05-05T05:10:11.336Z,42.77
2023-05-05T05:11:11.256Z,41.66
2023-05-05T05:12:11.263Z,45.38
2023-05-05T05:13:12.692Z,42.90
2023-05-05T05:14:11.263Z,44.37
2023-05-05T05:15:11.224Z,45.96
2023-05-05T05:16:11.284Z,44.29
2023-05-05T05:17:11.192Z,40.59
2023-05-05T05:18:11.179Z,43.91
2023-05-05T05:19:11.202Z,42.59
2023-05-05T05:20:11.452Z,43.20
2023-05-05T05:21:11.403Z,42.39
2023-05-05T05:22:11.159Z,43.56
2023-05-05T05:23:11.233Z,39.98
2023-05-05T05:24:11.151Z,41.10
2023-05-05T05:25:11.127Z,41.08
2023-05-05T05:26:11.248Z,42.63
2023-05-05T05:27:12.012Z,40.45
2023-05-05T05:28:11.203Z,39.78
2023-05-05T05:29:11.134Z,39.79
2023-05-05T05:30:11.116Z,41.71
2023-05-05T05:31:11.169Z,40.47
2023-05-05T05:32:11.136Z,41.27
2023-05-05T05:33:11.187Z,41.09
2023-05-05T05:34:12.717Z,44.66
2023-05-05T05:35:11.139Z,42.37
2023-05-05T05:36:11.179Z,42.94
2023-05-05T05:37:11.304Z,42.62
2023-05-05T05:38:11.202Z,46.05
2023-05-05T05:39:11.230Z,48.38
2023-05-05T05:40:11.298Z,49.71
2023-05-05T05:41:11.326Z,51.03
2023-05-05T05:42:11.307Z,55.25
2023-05-05T05:43:11.343Z,54.58
2023-05-05T05:44:11.316Z,65.64
2023-05-05T05:45:11.326Z,63.38
2023-05-05T05:46:11.457Z,66.89
2023-05-05T05:47:11.770Z,72.47
2023-05-05T05:48:11.611Z,72.40
2023-05-05T05:49:11.620Z,72.30
2023-05-05T05:50:11.609Z,76.43
2023-05-05T05:51:11.649Z,80.93
2023-05-05T05:52:11.673Z,82.43
2023-05-05T05:53:11.683Z,82.70
2023-05-05T05:54:11.724Z,86.47
2023-05-05T05:55:11.854Z,86.97
2023-05-05T05:56:11.809Z,85.70
2023-05-05T05:57:11.807Z,89.56
2023-05-05T05:58:11.885Z,88.47
2023-05-05T05:59:11.802Z,91.31
2023-05-05T06:00:12.438Z,90.79
2023-05-05T06:01:11.796Z,88.62
2023-05-05T06:02:11.875Z,90.99
2023-05-05T06:03:11.914Z,89.72
2023-05-05T06:04:11.873Z,88.74
2023-05-05T06:05:11.803Z,91.42
2023-05-05T06:06:11.881Z,90.69
2023-05-05T06:07:12.414Z,93.00
2023-05-05T06:08:11.956Z,94.13
2023-05-05T06:09:11.978Z,91.41
2023-05-05T06:10:25.833Z,92.79
2023-05-05T06:11:12.954Z,93.01
2023-05-05T06:12:11.974Z,92.29
2023-05-05T06:13:12.027Z,93.05
2023-05-05T06:14:11.930Z,92.78
2023-05-05T06:15:11.930Z,92.85
2023-05-05T06:16:11.918Z,93.90
2023-05-05T06:17:11.955Z,92.05
2023-05-05T06:18:11.944Z,93.85
2023-05-05T06:19:11.989Z,95.31
2023-05-05T06:20:11.883Z,94.32
2023-05-05T06:21:11.912Z,92.12
2023-05-05T06:22:11.888Z,93.43
2023-05-05T06:23:11.878Z,92.02
2023-05-05T06:24:11.931Z,92.95
2023-05-05T06:25:11.841Z,92.79
2023-05-05T06:26:11.832Z,92.39
2023-05-05T06:27:11.836Z,92.02
2023-05-05T06:28:11.874Z,94.06
2023-05-05T06:29:12.429Z,92.03
2023-05-05T06:30:11.864Z,89.67
2023-05-05T06:31:11.886Z,91.64
2023-05-05T06:32:11.920Z,91.32
2023-05-05T06:33:11.877Z,95.58
2023-05-05T06:34:11.905Z,93.35
2023-05-05T06:35:11.987Z,90.58
2023-05-05T06:36:12.128Z,94.95
2023-05-05T06:37:12.095Z,93.75
2023-05-05T06:38:12.129Z,93.29
2023-05-05T06:39:14.024Z,96.76
2023-05-05T06:40:12.122Z,103.74
2023-05-05T06:41:12.079Z,107.53
2023-05-05T06:42:12.086Z,110.89
2023-05-05T06:43:12.051Z,114.73
2023-05-05T06:44:12.055Z,119.10
2023-05-05T06:45:12.048Z,124.17
2023-05-05T06:46:12.046Z,128.16
2023-05-05T06:47:12.453Z,130.26
2023-05-05T06:48:14.910Z,133.76
2023-05-05T06:49:12.037Z,134.05
2023-05-05T06:50:12.037Z,134.25
2023-05-05T06:51:12.010Z,135.37
2023-05-05T06:52:12.072Z,141.13
2023-05-05T06:53:11.992Z,141.72
2023-05-05T06:54:11.982Z,149.13
2023-05-05T06:55:11.978Z,151.89
2023-05-05T06:56:11.999Z,156.38
2023-05-05T06:57:12.021Z,164.52
2023-05-05T06:58:12.093Z,147.33
2023-05-05T06:59:11.998Z,114.42
2023-05-05T07:00:12.035Z,87.97
2023-05-05T07:01:11.964Z,66.78
2023-05-05T07:02:11.956Z,53.39
2023-05-05T07:03:12.071Z,72.24
2023-05-05T07:04:12.058Z,73.36
2023-05-05T07:05:11.974Z,76.37
2023-05-05T07:06:11.939Z,82.59
2023-05-05T07:07:11.956Z,83.00
2023-05-05T07:08:11.952Z,86.74
2023-05-05T07:09:11.905Z,91.99
2023-05-05T07:10:11.908Z,133.09
2023-05-05T07:11:11.868Z,121.18
2023-05-05T07:12:11.862Z,114.64
2023-05-05T07:13:11.947Z,118.52
2023-05-05T07:14:11.988Z,117.35
2023-05-05T07:15:26.033Z,119.19
2023-05-05T07:16:12.930Z,119.68
2023-05-05T07:17:11.821Z,121.10
2023-05-05T07:18:11.873Z,123.18
2023-05-05T07:19:11.822Z,126.12
2023-05-05T07:20:11.845Z,130.45
2023-05-05T07:21:11.796Z,133.69
2023-05-05T07:22:11.813Z,139.60
2023-05-05T07:23:11.795Z,142.29
2023-05-05T07:24:11.851Z,141.32
2023-05-05T07:25:11.778Z,103.60
2023-05-05T07:26:11.783Z,110.74
2023-05-05T07:27:11.763Z,110.35
2023-05-05T07:28:11.769Z,115.51
2023-05-05T07:29:11.990Z,114.20
2023-05-05T07:30:14.753Z,119.88
2023-05-05T07:31:12.861Z,120.20
2023-05-05T07:32:11.769Z,121.13
2023-05-05T07:33:11.752Z,120.64
2023-05-05T07:34:11.950Z,97.94
2023-05-05T07:35:11.729Z,78.74
2023-05-05T07:36:11.769Z,46.30
2023-05-05T07:37:11.690Z,43.71
2023-05-05T07:38:11.716Z,58.99
2023-05-05T07:39:11.686Z,46.39
2023-05-05T07:40:11.796Z,25.27
2023-05-05T07:41:11.672Z,22.38
2023-05-05T07:42:11.676Z,18.95
2023-05-05T07:43:11.646Z,25.72
2023-05-05T07:44:11.642Z,25.00
2023-05-05T07:45:11.655Z,28.99
2023-05-05T07:46:11.749Z,25.00
2023-05-05T07:47:11.659Z,25.85
2023-05-05T07:48:11.662Z,25.00
2023-05-05T07:49:11.672Z,26.58
2023-05-05T07:50:11.755Z,31.36
2023-05-05T07:51:11.755Z,30.09
2023-05-05T07:52:11.717Z,25.00
2023-05-05T07:53:14.917Z,25.00
2023-05-05T07:54:11.693Z,29.27
2023-05-05T07:55:11.708Z,23.43
2023-05-05T07:56:11.674Z,25.00
2023-05-05T07:57:11.650Z,30.22
2023-05-05T07:58:11.682Z,26.81
2023-05-05T07:59:11.684Z,28.78
2023-05-05T08:00:11.776Z,28.81
2023-05-05T08:01:11.627Z,25.98
2023-05-05T08:02:11.767Z,28.38
2023-05-05T08:03:12.300Z,25.00
2023-05-05T08:04:11.678Z,25.57
2023-05-05T08:05:11.704Z,24.27
2023-05-05T08:06:11.612Z,29.89
2023-05-05T08:07:11.580Z,39.63
2023-05-05T08:08:11.595Z,37.22
2023-05-05T08:09:11.656Z,49.50
2023-05-05T08:10:11.584Z,56.76
2023-05-05T08:11:11.575Z,60.80
2023-05-05T08:12:11.976Z,64.43
2023-05-05T08:13:11.556Z,70.75
2023-05-05T08:14:11.533Z,78.50
2023-05-05T08:15:11.656Z,87.47
2023-05-05T08:16:11.534Z,88.26
2023-05-05T08:17:11.528Z,94.42
2023-05-05T08:18:11.593Z,97.66
2023-05-05T08:19:21.542Z,101.33
2023-05-05T08:20:12.489Z,101.56
2023-05-05T08:21:11.484Z,102.81
2023-05-05T08:22:11.494Z,105.48
2023-05-05T08:23:11.570Z,110.54
2023-05-05T08:24:11.471Z,108.10
2023-05-05T08:25:11.477Z,107.83
2023-05-05T08:26:11.447Z,135.06
2023-05-05T08:27:11.460Z,124.05
2023-05-05T08:28:11.490Z,123.71
2023-05-05T08:29:11.533Z,122.65
2023-05-05T08:30:12.020Z,122.84
2023-05-05T08:31:11.445Z,119.81
2023-05-05T08:32:11.417Z,122.27
2023-05-05T08:33:11.459Z,122.54
2023-05-05T08:34:11.517Z,125.79
2023-05-05T08:35:11.999Z,124.10
2023-05-05T08:36:11.429Z,126.09
2023-05-05T08:37:11.395Z,128.60
2023-05-05T08:38:11.486Z,129.54
2023-05-05T08:39:11.392Z,128.53
2023-05-05T08:40:11.391Z,130.78
2023-05-05T08:41:11.392Z,131.39
2023-05-05T08:42:11.400Z,132.83
2023-05-05T08:43:11.346Z,134.45
2023-05-05T08:44:11.532Z,139.10
2023-05-05T08:45:11.597Z,144.98
2023-05-05T08:46:11.375Z,145.78
2023-05-05T08:47:11.366Z,145.59
2023-05-05T08:48:11.340Z,149.26
2023-05-05T08:49:11.287Z,152.80
2023-05-05T08:50:11.334Z,155.06
2023-05-05T08:51:11.292Z,161.42
2023-05-05T08:52:11.349Z,166.46
2023-05-05T08:53:11.386Z,168.13
2023-05-05T08:54:11.287Z,170.93
2023-05-05T08:55:11.255Z,176.59
2023-05-05T08:56:11.227Z,180.26
2023-05-05T08:57:11.253Z,182.52
2023-05-05T08:58:11.233Z,185.52
2023-05-05T08:59:11.264Z,189.72
2023-05-05T09:00:11.366Z,192.29
2023-05-05T09:01:11.433Z,196.47
2023-05-05T09:02:11.487Z,198.71
2023-05-05T09:03:11.751Z,202.68
2023-05-05T09:04:11.536Z,204.66
2023-05-05T09:05:11.563Z,208.12
2023-05-05T09:06:11.673Z,209.45
2023-05-05T09:07:11.681Z,212.80
2023-05-05T09:08:11.716Z,212.70
2023-05-05T09:09:11.723Z,214.97
2023-05-05T09:10:11.825Z,216.57
2023-05-05T09:11:11.805Z,233.68
2023-05-05T09:12:11.850Z,229.63
2023-05-05T09:13:11.881Z,227.47
2023-05-05T09:14:11.886Z,225.98
2023-05-05T09:15:11.932Z,224.78
2023-05-05T09:16:11.978Z,225.67
2023-05-05T09:17:11.967Z,227.51
2023-05-05T09:18:12.054Z,226.62
2023-05-05T09:19:12.048Z,229.19
2023-05-05T09:20:12.046Z,229.00
2023-05-05T09:21:12.050Z,231.30
2023-05-05T09:22:12.149Z,234.20
2023-05-05T09:23:12.130Z,233.91
2023-05-05T09:24:12.225Z,238.39
2023-05-05T09:25:12.173Z,247.72
2023-05-05T09:26:12.192Z,250.00
2023-05-05T09:27:12.201Z,248.15
2023-05-05T09:28:12.210Z,245.63
2023-05-05T09:29:12.199Z,244.49
2023-05-05T09:30:12.204Z,240.57
2023-05-05T09:31:12.401Z,222.16
2023-05-05T09:32:12.225Z,221.69
2023-05-05T09:33:12.300Z,206.69
2023-05-05T09:34:12.241Z,203.40
2023-05-05T09:35:12.384Z,209.08
2023-05-05T09:36:12.282Z,208.57
2023-05-05T09:37:12.249Z,210.42
2023-05-05T09:38:12.498Z,211.41
2023-05-05T09:39:12.271Z,212.41
2023-05-05T09:40:12.273Z,215.72
2023-05-05T09:41:12.298Z,210.58
2023-05-05T09:42:12.247Z,213.86
2023-05-05T09:43:12.320Z,218.65
2023-05-05T09:44:12.521Z,216.46
2023-05-05T09:45:12.277Z,212.15
2023-05-05T09:46:12.295Z,211.69
2023-05-05T09:47:25.907Z,210.99
2023-05-05T09:48:13.301Z,211.05
2023-05-05T09:49:12.331Z,211.09
2023-05-05T09:50:12.284Z,211.07
2023-05-05T09:51:12.359Z,207.81
2023-05-05T09:52:12.267Z,205.19
2023-05-05T09:53:12.252Z,204.19
2023-05-05T09:54:12.284Z,204.76
2023-05-05T09:55:12.251Z,199.32
2023-05-05T09:56:12.253Z,198.32
2023-05-05T09:57:12.255Z,194.16
2023-05-05T09:58:12.271Z,191.24
2023-05-05T09:59:12.229Z,191.18
2023-05-05T10:00:12.265Z,189.49
2023-05-05T10:01:12.250Z,192.87
2023-05-05T10:02:12.220Z,189.51
2023-05-05T10:03:12.213Z,187.17
2023-05-05T10:04:12.183Z,182.01
2023-05-05T10:05:12.262Z,182.56
2023-05-05T10:06:12.304Z,179.63
2023-05-05T10:07:12.307Z,177.51
2023-05-05T10:08:12.433Z,176.15
2023-05-05T10:09:12.421Z,175.51
2023-05-05T10:10:12.530Z,171.95
2023-05-05T10:11:12.494Z,171.81
2023-05-05T10:12:12.566Z,171.17
2023-05-05T10:13:12.707Z,169.16
2023-05-05T10:14:12.701Z,166.02
2023-05-05T10:15:12.722Z,164.20
2023-05-05T10:16:12.781Z,158.65
2023-05-05T10:17:12.797Z,150.14
2023-05-05T10:18:12.983Z,134.52
2023-05-05T10:19:12.932Z,129.43
2023-05-05T10:20:12.939Z,109.42
2023-05-05T10:21:12.945Z,112.08
2023-05-05T10:22:12.996Z,95.41
2023-05-05T10:23:13.056Z,86.26
2023-05-05T10:24:13.083Z,86.76
2023-05-05T10:25:13.050Z,105.04
2023-05-05T10:26:13.071Z,121.43
2023-05-05T10:27:13.117Z,126.05
2023-05-05T10:28:13.520Z,111.16
2023-05-05T10:29:13.087Z,99.60
2023-05-05T10:30:13.098Z,87.75
2023-05-05T10:31:24.176Z,106.05
2023-05-05T10:32:40.826Z,89.21
2023-05-05T10:33:30.280Z,78.73
2023-05-05T10:34:14.131Z,90.21
2023-05-05T10:35:13.093Z,98.08
2023-05-05T10:36:13.118Z,80.03
2023-05-05T10:37:13.107Z,53.39
2023-05-05T10:38:13.096Z,62.81
2023-05-05T10:39:13.077Z,67.39
2023-05-05T10:40:13.048Z,81.00
2023-05-05T10:41:13.043Z,47.25
2023-05-05T10:42:13.159Z,9.25
2023-05-05T10:43:13.524Z,35.59
2023-05-05T10:44:13.027Z,66.12
2023-05-05T10:45:13.046Z,87.89
2023-05-05T10:46:13.102Z,106.77
2023-05-05T10:47:13.156Z,118.84
2023-05-05T10:48:13.157Z,94.69
2023-05-05T10:49:13.513Z,53.29
2023-05-05T10:50:13.059Z,37.57
2023-05-05T10:51:15.426Z,18.53
2023-05-05T10:52:13.974Z,19.66
2023-05-05T10:53:12.958Z,26.70
2023-05-05T10:54:13.074Z,44.77
2023-05-05T10:55:13.098Z,47.70
2023-05-05T10:56:12.935Z,25.95
2023-05-05T10:57:12.962Z,0.00
2023-05-05T10:58:12.977Z,0.00
2023-05-05T10:59:12.912Z,0.00
2023-05-05T11:00:15.035Z,16.68
2023-05-05T11:01:13.002Z,0.00
2023-05-05T11:02:13.048Z,31.63
2023-05-05T11:03:13.157Z,30.79
2023-05-05T11:04:13.148Z,0.00
2023-05-05T11:05:13.571Z,0.00
2023-05-05T11:06:13.257Z,0.00
2023-05-05T11:07:15.019Z,17.22
2023-05-05T11:08:13.426Z,28.04
2023-05-05T11:09:13.479Z,52.71
2023-05-05T11:10:13.509Z,78.09
2023-05-05T11:11:13.536Z,59.37
2023-05-05T11:12:13.685Z,55.97
2023-05-05T11:13:13.663Z,53.37
2023-05-05T11:14:13.901Z,47.27
2023-05-05T11:15:13.722Z,59.01
2023-05-05T11:16:13.794Z,67.00
2023-05-05T11:17:13.918Z,81.53
2023-05-05T11:18:13.875Z,91.26
2023-05-05T11:19:13.850Z,101.81
2023-05-05T11:20:13.973Z,114.26
2023-05-05T11:21:14.008Z,121.60
2023-05-05T11:22:13.997Z,125.54
2023-05-05T11:23:16.567Z,132.75
2023-05-05T11:24:14.363Z,135.71
2023-05-05T11:25:14.404Z,139.54
2023-05-05T11:26:14.415Z,142.46
2023-05-05T11:27:14.459Z,144.65
2023-05-05T11:28:14.583Z,148.37
2023-05-05T11:29:14.588Z,151.38
2023-05-05T11:30:14.740Z,151.89
2023-05-05T11:31:14.677Z,154.14
2023-05-05T11:32:14.690Z,156.61
2023-05-05T11:33:14.699Z,160.13
2023-05-05T11:34:14.725Z,162.88
2023-05-05T11:35:14.718Z,164.40
2023-05-05T11:36:14.700Z,164.72
2023-05-05T11:37:14.701Z,168.61
2023-05-05T11:38:14.711Z,170.94
2023-05-05T11:39:14.703Z,171.23
2023-05-05T11:40:14.703Z,173.90
2023-05-05T11:41:14.712Z,174.68
2023-05-05T11:42:14.710Z,175.29
2023-05-05T11:43:14.694Z,178.75
2023-05-05T11:44:14.719Z,180.73
2023-05-05T11:45:14.734Z,182.46
2023-05-05T11:46:14.789Z,184.46
2023-05-05T11:47:14.741Z,185.70
2023-05-05T11:48:14.767Z,187.18
2023-05-05T11:49:14.756Z,188.44
2023-05-05T11:50:14.763Z,188.73
2023-05-05T11:51:14.751Z,189.60
2023-05-05T11:52:14.746Z,191.04
2023-05-05T11:53:14.785Z,191.59
2023-05-05T11:54:14.761Z,193.15
2023-05-05T11:55:14.804Z,193.62
2023-05-05T11:56:14.768Z,195.08
2023-05-05T11:57:14.803Z,196.18
2023-05-05T11:58:14.817Z,195.84
2023-05-05T11:59:14.821Z,197.35
2023-05-05T12:00:14.830Z,197.72
2023-05-05T12:01:14.872Z,198.12
2023-05-05T12:02:14.993Z,199.35
2023-05-05T12:03:14.977Z,200.07
2023-05-05T12:04:14.983Z,200.76
2023-05-05T12:05:14.909Z,201.00
2023-05-05T12:06:14.924Z,201.46
2023-05-05T12:07:14.979Z,201.41
2023-05-05T12:08:14.992Z,201.59
2023-05-05T12:09:14.959Z,202.99
2023-05-05T12:10:15.011Z,202.44
2023-05-05T12:11:15.005Z,203.65
2023-05-05T12:12:15.022Z,203.90
2023-05-05T12:13:15.096Z,204.67
2023-05-05T12:14:15.069Z,205.42
2023-05-05T12:15:15.096Z,204.60
2023-05-05T12:16:15.121Z,205.75
2023-05-05T12:17:15.130Z,205.70
2023-05-05T12:18:15.203Z,205.87
2023-05-05T12:19:15.150Z,207.08
2023-05-05T12:20:15.172Z,206.80
2023-05-05T12:21:15.207Z,207.77
2023-05-05T12:22:15.210Z,206.92
2023-05-05T12:23:15.587Z,208.01
2023-05-05T12:24:15.307Z,207.61
2023-05-05T12:25:15.283Z,207.71
2023-05-05T12:26:15.282Z,208.42
2023-05-05T12:27:15.319Z,207.77
2023-05-05T12:28:15.377Z,209.84
2023-05-05T12:29:15.394Z,209.34
2023-05-05T12:30:15.414Z,209.93
2023-05-05T12:31:15.477Z,208.50
2023-05-05T12:32:15.451Z,210.01
2023-05-05T12:33:15.438Z,209.60
2023-05-05T12:34:15.490Z,210.20
2023-05-05T12:35:15.458Z,210.45
2023-05-05T12:36:15.490Z,209.56
2023-05-05T12:37:15.514Z,210.66
2023-05-05T12:38:15.530Z,209.71
2023-05-05T12:39:15.584Z,209.09
2023-05-05T12:40:15.588Z,209.97
2023-05-05T12:41:15.614Z,210.63
2023-05-05T12:42:15.663Z,209.86
2023-05-05T12:43:15.766Z,209.15
2023-05-05T12:44:15.698Z,209.19